aviador You're here:

HESH Decoded Metar

SHARM EL SHEIKHI in EGYPT
Report Time2017-08-22 10:00:00
UTC Time2017-08-22 11:09:16
Flight Rules Old
Wind020° at 17 kt
W.Decomp.*RWY 04: 15.6 kt HW 6.6 kt LCW
W.Rank020° ranks 3
Current wind is above 020° avg. (11.1)
Visibility9999 m
Phenomena:N/A
Clouds:N/A
Expected CloudBase > 8,400 ft AGL from Temp-Dew spread
CeilingNone
Temp35°C (ISA +20)
Dew Point14°C (28% RH)
Heat Index34.3°C
AAT30.1°C
QNH1005 hPa
Density Alt2,953 ft
Elevation164 ft
Report Wrong Elevation
Raw Report
HESH 221000Z 02017KT CAVOK 35/14 Q1005 NOSIG=

Extra information for HESH:More info

Metar Taf Metar & Taf Last 4 Metars F.Rules Stats Wind Profile Meteogram Temp Stats Airport Information Weather charts Add Link Nearby VenuesMetar ALERT Operation Metar Decoded Social comments